KOPF/OPF METAR and TAF weather

Enter ICAO airport designator
Station Type Date Time Source
KOPF METAR 2020/07/15 07:53 UTC NOAA

KOPF 150753Z AUTO 00000KT 10SM CLR 27/23 A3002 RMK AO2 SLP167 T02720228 $


Station Type Date Time Source
KOPF Decoded METAR 2020/07/15 07:53 UTC NOAA

MIAMI OPA LOCKA AIRPORT, FL, United States (KOPF) 25-54N 80-17W 16M
Jul 15, 2020 - 03:53 AM EDT / 2020.07.15 0753 UTC
Wind: Calm:0
Visibility: 10 mile(s):0
Sky conditions: clear
Temperature: 81.0 F (27.2 C)
Dew Point: 73.0 F (22.8 C)
Relative Humidity: 76%
Pressure (altimeter): 30.02 in. Hg (1016 hPa)
ob: KOPF 150753Z AUTO 00000KT 10SM CLR 27/23 A3002 RMK AO2 SLP167 T02720228
cycle: 8

Station Type Date Time Source
KOPF TAF 2020/07/15 06:24 UTC NOAA

TAF KOPF 150523Z 1506/1606 VRB04KT P6SM FEW030
FM151800 10008KT P6SM VCTS SCT030CB SCT250
FM160200 VRB04KT P6SM SCT030 SCT250

Example: see airport list